Time;durP1;ratioP1;P1;durP2;ratioP2;P2;SDS_P1;SDS_P2;PMS_P1;PMS_P2;Temp;Humidity;BMP_temperature;BMP_pressure;BME280_temperature;BME280_humidity;BME280_pressure;Samples;Min_cycle;Max_cycle;Signal;HPM_P1;HPM_P2
2022/11/07 00:00:08;;;;;;;52.70;29.60;;;;;;;5.99;93.31;100571.20;1802086;77;21003;-76
2022/11/07 00:02:38;;;;;;;46.55;30.77;;;;;;;5.99;93.53;100579.98;1818036;77;20994;-75
2022/11/07 00:05:06;;;;;;;48.85;30.80;;;;;;;6.06;93.25;100575.89;1816324;78;21731;-77
2022/11/07 00:07:34;;;;;;;52.90;32.70;;;;;;;6.04;93.32;100575.17;1814218;79;21542;-76
2022/11/07 00:10:03;;;;;;;51.45;28.55;;;;;;;6.02;93.49;100571.81;1816361;77;21045;-76
2022/11/07 00:12:30;;;;;;;47.90;30.37;;;;;;;6.03;93.44;100567.40;1796013;77;21031;-75
2022/11/07 00:14:56;;;;;;;49.75;31.60;;;;;;;6.13;93.14;100580.23;1804554;77;21109;-76
2022/11/07 00:17:23;;;;;;;58.10;33.70;;;;;;;6.09;93.13;100575.66;1804504;77;21645;-77
2022/11/07 00:19:49;;;;;;;52.15;30.37;;;;;;;6.04;93.42;100563.78;1775489;79;21072;-77
2022/11/07 00:22:17;;;;;;;48.78;30.45;;;;;;;6.01;93.34;100559.59;1792206;77;21090;-74
2022/11/07 00:24:45;;;;;;;48.55;30.05;;;;;;;6.09;93.22;100570.39;1792016;77;21483;-77
2022/11/07 00:27:11;;;;;;;54.13;33.95;;;;;;;6.13;93.31;100561.76;1798543;78;21105;-75
2022/11/07 00:29:40;;;;;;;55.88;33.13;;;;;;;6.13;93.36;100567.52;1803167;78;21070;-78
2022/11/07 00:32:08;;;;;;;49.48;30.77;;;;;;;6.10;93.49;100558.02;1806555;79;21035;-75
2022/11/07 00:34:35;;;;;;;48.83;29.90;;;;;;;6.14;93.07;100563.91;1805756;78;21035;-76
2022/11/07 00:37:03;;;;;;;49.93;30.08;;;;;;;6.20;92.83;100554.19;1784768;78;21557;-76
2022/11/07 00:39:30;;;;;;;53.95;31.57;;;;;;;6.19;92.87;100556.48;1804930;78;21015;-79
2022/11/07 00:41:57;;;;;;;49.65;30.97;;;;;;;6.13;93.08;100553.02;1798626;77;21474;-76
2022/11/07 00:44:25;;;;;;;53.68;32.23;;;;;;;6.10;93.03;100548.34;1742002;80;21505;-77
2022/11/07 00:46:52;;;;;;;49.67;30.82;;;;;;;6.19;92.86;100548.08;1727204;80;21461;-75
2022/11/07 00:49:20;;;;;;;47.57;30.97;;;;;;;6.24;92.80;100551.70;1802712;79;21054;-77
2022/11/07 00:51:47;;;;;;;47.40;31.85;;;;;;;6.22;92.92;100552.27;1807174;79;21093;-76
2022/11/07 00:54:15;;;;;;;50.65;30.88;;;;;;;6.18;92.91;100553.47;1804892;77;21034;-75
2022/11/07 00:56:41;;;;;;;52.93;30.60;;;;;;;6.19;92.79;100548.57;1792293;77;21065;-75
2022/11/07 00:59:09;;;;;;;47.60;31.20;;;;;;;6.24;92.54;100544.61;1780574;77;21010;-77
2022/11/07 01:01:36;;;;;;;46.28;31.05;;;;;;;6.22;92.74;100546.53;1782204;79;21046;-77
2022/11/07 01:06:49;;;;;;;48.92;30.27;;;;;;;6.16;92.96;100547.48;1787597;77;21136;-77
2022/11/07 01:09:18;;;;;;;44.75;30.48;;;;;;;6.21;92.85;100540.88;1792610;77;21054;-77
2022/11/07 01:11:46;;;;;;;48.95;31.52;;;;;;;6.26;92.75;100536.09;1786780;77;21562;-77
2022/11/07 01:14:15;;;;;;;51.18;33.00;;;;;;;6.24;92.96;100539.34;1787991;77;21047;-77
2022/11/07 01:16:43;;;;;;;52.90;32.50;;;;;;;6.21;92.96;100528.18;1794412;77;21037;-77
2022/11/07 01:19:10;;;;;;;48.83;32.05;;;;;;;6.24;92.86;100536.70;1799664;77;21229;-78
2022/11/07 01:21:38;;;;;;;54.63;34.73;;;;;;;6.30;92.59;100523.50;1797734;77;21015;-76
2022/11/07 01:24:07;;;;;;;52.30;32.30;;;;;;;6.23;92.61;100523.13;1803152;77;21035;-77
2022/11/07 01:26:34;;;;;;;56.00;31.30;;;;;;;6.17;92.94;100526.26;1801900;77;21059;-76
2022/11/07 01:29:01;;;;;;;52.73;30.95;;;;;;;6.20;92.92;100520.75;1775878;79;21078;-75
2022/11/07 01:31:30;;;;;;;47.85;32.00;;;;;;;6.29;92.70;100513.41;1797947;77;21503;-76
2022/11/07 01:33:58;;;;;;;48.90;31.42;;;;;;;6.29;92.70;100509.94;1788912;77;21586;-75
2022/11/07 01:36:25;;;;;;;50.17;31.50;;;;;;;6.21;92.82;100510.55;1800563;77;21050;-78
2022/11/07 01:38:51;;;;;;;44.40;28.98;;;;;;;6.18;92.90;100510.80;1791392;77;21074;-75
2022/11/07 01:41:21;;;;;;;51.10;33.38;;;;;;;6.24;92.78;100507.67;1787187;77;21034;-75
2022/11/07 01:44:09;;;;;;;57.88;33.60;;;;;;;6.21;93.03;100511.86;1801046;77;21236;-75
2022/11/07 01:46:38;;;;;;;44.85;29.85;;;;;;;6.16;93.20;100518.00;1784922;77;21082;-74
2022/11/07 01:49:28;;;;;;;50.52;32.10;;;;;;;6.19;93.12;100502.40;1804629;77;21038;-75
2022/11/07 01:52:20;;;;;;;45.38;30.12;;;;;;;6.28;92.85;100502.51;1797764;77;21003;-75
2022/11/07 01:55:18;;;;;;;51.53;33.90;;;;;;;6.24;92.93;100498.44;1806390;77;21034;-77
2022/11/07 01:57:55;;;;;;;51.15;30.55;;;;;;;6.18;93.13;100492.33;1795649;77;21149;-77
2022/11/07 02:00:22;;;;;;;49.00;31.62;;;;;;;6.24;93.00;100490.52;1801367;77;21036;-76
2022/11/07 02:02:56;;;;;;;48.50;31.60;;;;;;;6.28;92.94;100488.48;1802475;77;21010;-75
2022/11/07 02:05:31;;;;;;;47.38;31.07;;;;;;;6.25;92.91;100478.98;1804751;77;21098;-74
2022/11/07 02:08:02;;;;;;;47.65;28.95;;;;;;;6.20;92.95;100469.30;1793166;77;21091;-72
2022/11/07 02:10:29;;;;;;;45.43;31.10;;;;;;;6.29;92.72;100480.91;1792128;77;21130;-74
2022/11/07 02:12:57;;;;;;;48.30;31.17;;;;;;;6.28;92.68;100480.08;1792603;77;20994;-77
2022/11/07 02:15:25;;;;;;;43.52;30.60;;;;;;;6.23;92.91;100471.68;1807773;77;21534;-76
2022/11/07 02:17:52;;;;;;;45.15;28.83;;;;;;;6.22;92.85;100478.39;1788430;77;21007;-76
2022/11/07 02:20:18;;;;;;;46.33;32.20;;;;;;;6.28;92.68;100481.89;1807022;77;21178;-76
2022/11/07 02:23:02;;;;;;;46.68;30.45;;;;;;;6.24;92.84;100472.54;1797831;77;21087;-76
2022/11/07 02:25:28;;;;;;;;;;;;;;;6.21;93.03;100472.77;1799386;77;21043;-76
2022/11/07 02:27:58;;;;;;;45.30;28.70;;;;;;;6.24;92.95;100475.17;1797905;77;20443;-76
2022/11/07 02:30:27;;;;;;;46.42;30.43;;;;;;;6.28;92.80;100470.84;1792692;77;20994;-76
2022/11/07 02:32:55;;;;;;;44.33;29.70;;;;;;;6.25;92.83;100476.84;1788461;78;21522;-76
2022/11/07 02:35:40;;;;;;;43.55;28.38;;;;;;;6.21;92.86;100468.33;1806214;77;21093;-73
2022/11/07 02:38:25;;;;;;;43.87;29.20;;;;;;;6.30;92.79;100473.36;1790187;77;21206;-74
2022/11/07 02:40:55;;;;;;;40.73;30.40;;;;;;;6.30;92.63;100467.59;1792439;77;21109;-76
2022/11/07 02:43:26;;;;;;;41.98;27.95;;;;;;;6.25;92.70;100473.71;1803224;77;21093;-76
2022/11/07 02:45:53;;;;;;;41.48;29.48;;;;;;;6.28;92.72;100484.52;1806096;77;21081;-76
2022/11/07 02:48:19;;;;;;;44.83;31.30;;;;;;;6.35;92.35;100484.37;1809754;77;21127;-76
2022/11/07 02:50:46;;;;;;;40.58;29.07;;;;;;;6.35;92.47;100469.02;1807702;79;21034;-76
2022/11/07 02:53:12;;;;;;;46.28;30.23;;;;;;;6.33;92.59;100489.42;1809340;77;21030;-75
2022/11/07 02:55:39;;;;;;;43.35;28.75;;;;;;;6.35;92.45;100468.54;1800319;77;21328;-76
2022/11/07 02:58:07;;;;;;;43.45;29.75;;;;;;;6.46;92.24;100476.44;1796716;77;21065;-76
2022/11/07 03:00:34;;;;;;;43.15;28.98;;;;;;;6.44;91.99;100478.36;1811508;77;21199;-76
2022/11/07 03:03:02;;;;;;;41.80;28.77;;;;;;;6.39;92.00;100481.84;1810810;77;21037;-77
2022/11/07 03:05:29;;;;;;;41.40;28.52;;;;;;;6.39;91.93;100484.48;1798988;79;21044;-77
2022/11/07 03:07:55;;;;;;;45.03;31.80;;;;;;;6.44;91.90;100481.00;1812793;77;21568;-77
2022/11/07 03:10:22;;;;;;;45.23;30.27;;;;;;;6.42;92.08;100482.92;1807706;77;21057;-76
2022/11/07 03:12:50;;;;;;;43.63;27.98;;;;;;;6.38;92.14;100489.91;1810883;77;21238;-77
2022/11/07 03:15:16;;;;;;;40.05;27.62;;;;;;;6.40;92.13;100495.41;1804252;77;21022;-76
2022/11/07 03:17:43;;;;;;;40.98;27.52;;;;;;;6.50;91.83;100491.55;1811510;77;22066;-76
2022/11/07 03:20:11;;;;;;;46.42;32.20;;;;;;;6.52;91.67;100495.39;1811096;77;21691;-75
2022/11/07 03:22:38;;;;;;;42.48;28.23;;;;;;;6.47;91.75;100490.00;1813645;77;21077;-74
2022/11/07 03:25:07;;;;;;;44.85;29.00;;;;;;;6.46;91.76;100488.80;1808657;77;21118;-75
2022/11/07 03:27:33;;;;;;;39.05;27.93;;;;;;;6.57;91.59;100490.10;1808791;77;21067;-75
2022/11/07 03:30:00;;;;;;;39.15;28.52;;;;;;;6.60;91.35;100489.84;1816090;77;21096;-75
2022/11/07 03:32:27;;;;;;;40.23;28.30;;;;;;;6.54;91.30;100488.19;1816508;77;21097;-75
2022/11/07 03:34:54;;;;;;;41.30;27.25;;;;;;;6.48;91.45;100484.23;1809664;77;21069;-76
2022/11/07 03:37:20;;;;;;;40.00;29.23;;;;;;;6.50;91.35;100476.54;1806740;77;21145;-76
2022/11/07 03:39:47;;;;;;;43.70;29.87;;;;;;;6.53;91.12;100479.89;1807099;77;21097;-75
2022/11/07 03:42:14;;;;;;;40.28;27.52;;;;;;;6.48;91.39;100471.87;1808479;77;21522;-75
2022/11/07 03:44:41;;;;;;;42.03;28.52;;;;;;;6.44;91.48;100477.04;1802313;78;21058;-75
2022/11/07 03:47:08;;;;;;;39.18;26.80;;;;;;;6.45;91.39;100473.91;1816933;77;21038;-75
2022/11/07 03:49:34;;;;;;;40.65;27.30;;;;;;;6.54;91.25;100473.66;1803779;77;21131;-76
2022/11/07 03:52:01;;;;;;;39.23;28.35;;;;;;;6.52;91.26;100470.31;1808154;77;21437;-76
2022/11/07 03:54:28;;;;;;;40.60;27.93;;;;;;;6.48;91.27;100461.31;1815782;77;21038;-74
2022/11/07 03:56:54;;;;;;;38.58;27.22;;;;;;;6.45;91.26;100473.45;1803556;77;21040;-74
2022/11/07 03:59:21;;;;;;;38.95;27.58;;;;;;;6.55;90.93;100455.53;1808051;77;20961;-76
2022/11/07 04:01:47;;;;;;;37.10;27.67;;;;;;;6.52;91.05;100478.23;1808038;77;21123;-75
2022/11/07 04:04:14;;;;;;;40.28;26.95;;;;;;;6.47;90.97;100458.33;1781677;77;21017;-74
2022/11/07 04:06:40;;;;;;;36.58;26.30;;;;;;;6.49;90.96;100456.41;1805736;77;21541;-74
2022/11/07 04:09:07;;;;;;;37.90;26.57;;;;;;;6.57;90.59;100451.83;1803528;77;21065;-76
2022/11/07 04:17:19;;;;;;;35.85;25.35;;;;;;;6.52;90.65;100454.48;1785115;77;20978;-76
2022/11/07 04:19:51;;;;;;;38.08;26.97;;;;;;;6.59;90.32;100453.02;1779373;77;21110;-75
2022/11/07 04:22:18;;;;;;;41.00;30.12;;;;;;;6.55;90.35;100444.97;1805233;79;20986;-77
2022/11/07 04:24:45;;;;;;;37.50;27.07;;;;;;;6.50;90.59;100444.03;1803299;77;20995;-75
2022/11/07 04:29:57;;;;;;;36.25;25.80;;;;;;;6.62;90.07;100444.83;1808610;79;21039;-75
2022/11/07 04:32:23;;;;;;;42.93;29.05;;;;;;;6.57;90.15;100441.75;1808012;77;21162;-75
2022/11/07 04:34:51;;;;;;;38.00;26.90;;;;;;;6.49;90.09;100440.56;1786145;77;21058;-76
2022/11/07 04:37:17;;;;;;;53.75;38.48;;;;;;;6.50;90.09;100436.12;1804526;77;21538;-76
2022/11/07 04:39:44;;;;;;;36.75;26.20;;;;;;;6.57;90.02;100432.52;1797272;77;21002;-76
2022/11/07 04:42:11;;;;;;;38.00;28.62;;;;;;;6.54;89.94;100436.22;1799076;77;20975;-77
2022/11/07 04:44:38;;;;;;;37.70;25.77;;;;;;;6.49;90.01;100446.34;1801734;79;21010;-76
2022/11/07 04:47:04;;;;;;;36.88;25.27;;;;;;;6.44;90.23;100445.37;1780296;77;20947;-77
2022/11/07 04:49:30;;;;;;;33.23;25.77;;;;;;;6.53;89.93;100434.56;1800216;77;21081;-75
2022/11/07 04:51:57;;;;;;;38.85;26.02;;;;;;;6.57;89.81;100445.71;1801841;79;21128;-76
2022/11/07 04:54:24;;;;;;;38.85;26.35;;;;;;;6.51;89.81;100435.17;1796801;77;21069;-77
2022/11/07 04:56:50;;;;;;;35.73;23.90;;;;;;;6.47;90.04;100448.23;1808069;77;21017;-78
2022/11/07 04:59:17;;;;;;;33.48;24.27;;;;;;;6.47;89.79;100446.45;1806530;77;21064;-77
2022/11/07 05:01:44;;;;;;;34.95;27.10;;;;;;;6.55;89.52;100447.61;1809668;79;20998;-76
2022/11/07 05:04:10;;;;;;;36.23;25.60;;;;;;;6.49;89.75;100463.49;1799952;77;21494;-76
2022/11/07 05:06:37;;;;;;;36.28;26.07;;;;;;;6.44;89.90;100460.37;1795735;77;20951;-76
2022/11/07 05:09:05;;;;;;;32.75;24.65;;;;;;;6.42;89.79;100465.77;1803889;77;21015;-77
2022/11/07 05:11:32;;;;;;;37.45;25.37;;;;;;;6.52;89.64;100463.22;1801554;77;20998;-77
2022/11/07 05:13:58;;;;;;;36.35;26.77;;;;;;;6.55;89.58;100472.69;1778778;79;21057;-76
2022/11/07 05:16:25;;;;;;;37.45;26.33;;;;;;;6.50;89.29;100471.27;1804855;77;21151;-76
2022/11/07 05:18:51;;;;;;;32.98;23.12;;;;;;;6.48;89.35;100481.11;1787710;77;21026;-76
2022/11/07 05:21:19;;;;;;;30.12;22.95;;;;;;;6.56;89.22;100472.57;1792545;77;21067;-77
2022/11/07 05:23:46;;;;;;;33.18;25.55;;;;;;;6.56;89.14;100479.17;1779513;77;21019;-77
2022/11/07 05:26:12;;;;;;;35.50;26.12;;;;;;;6.50;89.15;100473.08;1791361;77;21548;-74
2022/11/07 05:28:39;;;;;;;30.72;22.52;;;;;;;6.46;89.27;100483.52;1789467;77;21576;-75
2022/11/07 05:31:07;;;;;;;33.70;24.47;;;;;;;6.53;89.11;100490.00;1789226;77;21033;-77
2022/11/07 05:33:34;;;;;;;33.50;25.40;;;;;;;6.57;88.89;100480.86;1789052;77;21034;-74
2022/11/07 05:36:17;;;;;;;34.23;23.83;;;;;;;6.53;88.82;100483.85;1778894;79;21510;-76
2022/11/07 05:38:47;;;;;;;30.15;22.67;;;;;;;6.46;89.04;100476.44;1807131;77;21030;-76
2022/11/07 05:41:14;;;;;;;29.35;21.07;;;;;;;6.56;88.86;100473.89;1803787;77;21130;-78
2022/11/07 05:43:41;;;;;;;28.92;23.18;;;;;;;6.61;88.66;100488.06;1786045;77;21053;-75
2022/11/07 05:46:08;;;;;;;36.60;25.80;;;;;;;6.59;88.78;100484.70;1786468;77;21516;-76
2022/11/07 05:48:35;;;;;;;34.78;23.67;;;;;;;6.58;88.68;100490.94;1804463;77;21113;-77
2022/11/07 05:51:03;;;;;;;33.42;23.73;;;;;;;6.56;88.64;100484.94;1807056;79;20971;-77
2022/11/07 05:53:29;;;;;;;34.00;23.77;;;;;;;6.60;88.07;100484.55;1809013;79;21130;-76
2022/11/07 05:55:56;;;;;;;32.73;23.95;;;;;;;6.61;88.11;100490.70;1804586;77;21003;-76
2022/11/07 05:58:22;;;;;;;33.28;23.83;;;;;;;6.56;88.23;100484.45;1788893;77;21072;-78
2022/11/07 06:00:49;;;;;;;29.05;22.22;;;;;;;6.53;88.25;100491.77;1808135;77;21538;-77
2022/11/07 06:03:18;;;;;;;30.70;23.00;;;;;;;6.57;87.99;100498.52;1826408;77;21034;-76
2022/11/07 06:05:46;;;;;;;29.07;23.83;;;;;;;6.61;87.89;100494.66;1814768;79;21519;-78
2022/11/07 06:08:13;;;;;;;29.67;22.87;;;;;;;6.58;88.11;100498.85;1790650;79;21046;-76
2022/11/07 06:10:40;;;;;;;29.87;21.75;;;;;;;6.54;88.15;100490.34;1817621;77;21011;-76
2022/11/07 06:13:11;;;;;;;27.85;21.75;;;;;;;6.57;87.94;100489.27;1818708;77;21569;-78
2022/11/07 06:15:39;;;;;;;26.80;20.80;;;;;;;6.63;87.57;100499.33;1809251;77;21104;-76
2022/11/07 06:18:08;;;;;;;32.08;24.18;;;;;;;6.58;87.67;100488.30;1806729;77;21130;-74
2022/11/07 06:20:34;;;;;;;32.80;23.07;;;;;;;6.52;87.88;100483.52;1806441;77;22113;-76
2022/11/07 06:23:02;;;;;;;33.48;23.27;;;;;;;6.53;87.91;100491.31;1811232;77;21078;-76
2022/11/07 06:25:29;;;;;;;31.87;23.12;;;;;;;6.63;87.50;100490.09;1796642;77;21057;-77
2022/11/07 06:28:03;;;;;;;32.53;23.35;;;;;;;6.65;87.49;100491.63;1805854;77;21058;-75
2022/11/07 06:30:30;;;;;;;28.62;22.20;;;;;;;6.64;87.54;100493.07;1799297;77;21598;-76
2022/11/07 06:33:05;;;;;;;29.40;20.72;;;;;;;6.58;87.50;100502.32;1813376;79;21006;-74
2022/11/07 06:35:33;;;;;;;28.87;21.37;;;;;;;6.67;87.20;100496.80;1815324;77;21026;-76
2022/11/07 06:38:04;;;;;;;27.35;22.10;;;;;;;6.64;86.98;100503.63;1806576;77;21026;-76
2022/11/07 06:40:31;;;;;;;33.23;22.32;;;;;;;6.59;87.25;100499.23;1812478;77;21009;-75
2022/11/07 06:43:13;;;;;;;27.65;19.92;;;;;;;6.54;87.51;100500.06;1816410;77;21527;-75
2022/11/07 06:45:43;;;;;;;28.67;22.17;;;;;;;6.63;87.34;100500.65;1807831;77;21041;-76
2022/11/07 06:48:10;;;;;;;30.85;22.82;;;;;;;6.67;86.88;100518.75;1817983;77;21014;-74
2022/11/07 06:50:37;;;;;;;33.02;24.05;;;;;;;6.63;86.74;100508.57;1817955;79;21046;-77
2022/11/07 06:53:07;;;;;;;28.02;20.23;;;;;;;6.59;86.92;100504.02;1815524;77;21601;-77
2022/11/07 06:55:35;;;;;;;27.52;20.57;;;;;;;6.63;86.88;100511.21;1815342;78;22130;-76
2022/11/07 06:58:02;;;;;;;30.55;21.90;;;;;;;6.71;86.64;100502.18;1812921;78;21380;-77
2022/11/07 07:00:32;;;;;;;29.15;21.15;;;;;;;6.68;86.69;100512.52;1804004;77;21399;-73
2022/11/07 07:02:59;;;;;;;30.75;22.73;;;;;;;6.64;86.70;100514.19;1796353;79;20982;-74
2022/11/07 07:05:26;;;;;;;28.33;20.93;;;;;;;6.59;86.86;100509.78;1793947;79;20987;-74
2022/11/07 07:07:54;;;;;;;27.62;20.62;;;;;;;6.65;86.75;100513.24;1800782;79;21530;-75
2022/11/07 07:10:20;;;;;;;27.13;20.45;;;;;;;6.71;86.42;100521.16;1794476;77;21103;-76
2022/11/07 07:12:47;;;;;;;29.02;21.73;;;;;;;6.67;86.37;100517.92;1808276;79;21491;-75
2022/11/07 07:15:13;;;;;;;28.70;21.25;;;;;;;6.63;86.51;100523.09;1794974;77;22169;-75
2022/11/07 07:17:41;;;;;;;28.17;20.60;;;;;;;6.59;86.46;100520.34;1740709;82;21047;-76
2022/11/07 07:20:09;;;;;;;31.00;22.80;;;;;;;6.66;86.37;100519.73;1740426;82;21912;-77
2022/11/07 07:22:37;;;;;;;29.52;21.35;;;;;;;6.72;86.56;100519.69;1734128;80;21036;-83
2022/11/07 07:25:07;;;;;;;28.02;22.32;;;;;;;6.71;86.43;100515.88;1737933;80;21521;-78
2022/11/07 07:27:34;;;;;;;29.98;20.92;;;;;;;6.69;86.31;100515.50;1733972;80;21463;-75
2022/11/07 07:30:00;;;;;;;25.82;20.10;;;;;;;6.73;86.27;100518.73;1732340;80;21600;-76
2022/11/07 07:32:27;;;;;;;27.70;22.05;;;;;;;6.82;85.94;100510.08;1718730;81;21103;-76
2022/11/07 07:34:53;;;;;;;27.52;21.62;;;;;;;6.80;85.75;100518.61;1727104;82;21109;-77
2022/11/07 07:37:19;;;;;;;27.48;20.08;;;;;;;6.76;85.84;100506.62;1735104;80;22242;-77
2022/11/07 07:39:46;;;;;;;25.35;19.35;;;;;;;6.72;85.93;100509.13;1736563;80;21058;-77
2022/11/07 07:42:13;;;;;;;28.12;21.45;;;;;;;6.77;85.90;100513.56;1730556;80;21580;-78
2022/11/07 07:44:43;;;;;;;27.62;20.45;;;;;;;6.83;85.45;100513.05;1723410;81;21877;-80
2022/11/07 07:47:09;;;;;;;26.95;21.73;;;;;;;6.77;85.47;100510.92;1758429;80;21114;-78
2022/11/07 07:49:36;;;;;;;29.80;22.20;;;;;;;6.70;85.84;100522.94;1723535;80;20982;-76
2022/11/07 07:52:03;;;;;;;28.25;22.00;;;;;;;6.66;86.15;100522.83;1722320;82;21121;-77
2022/11/07 07:54:30;;;;;;;26.12;19.48;;;;;;;6.71;86.22;100510.10;1764101;80;21152;-78
2022/11/07 07:56:57;;;;;;;27.32;20.82;;;;;;;6.75;86.42;100513.34;1762704;80;22238;-78
2022/11/07 07:59:24;;;;;;;29.07;22.27;;;;;;;6.71;86.46;100504.82;1761898;80;21458;-76
2022/11/07 08:01:50;;;;;;;28.10;22.22;;;;;;;6.66;86.78;100517.55;1826061;78;21073;-76
2022/11/07 08:04:16;;;;;;;26.93;22.07;;;;;;;6.68;86.79;100518.26;1817179;77;20997;-78
2022/11/07 08:06:44;;;;;;;29.80;22.42;;;;;;;6.71;86.76;100518.02;1814134;77;20950;-78
2022/11/07 08:09:10;;;;;;;31.82;22.55;;;;;;;6.66;87.16;100512.27;1820619;77;21018;-76
2022/11/07 08:11:37;;;;;;;29.48;22.45;;;;;;;6.59;87.72;100509.30;1808383;77;21111;-78
2022/11/07 08:14:04;;;;;;;25.82;21.57;;;;;;;6.65;87.85;100506.64;1750088;80;21161;-82
2022/11/07 08:16:30;;;;;;;30.57;23.73;;;;;;;6.68;87.92;100497.13;1755475;80;21567;-83
2022/11/07 08:18:57;;;;;;;28.25;20.88;;;;;;;6.64;87.96;100500.99;1745729;80;21104;-83
2022/11/07 08:21:25;;;;;;;29.72;22.27;;;;;;;6.56;88.39;100504.25;1748675;80;21054;-82
2022/11/07 08:23:53;;;;;;;30.27;23.65;;;;;;;6.63;88.37;100505.93;1822977;77;21021;-79
2022/11/07 08:26:19;;;;;;;29.27;23.25;;;;;;;6.62;88.74;100499.79;1820268;77;21523;-76
2022/11/07 08:28:46;;;;;;;28.90;22.65;;;;;;;6.53;89.02;100504.52;1801966;77;21036;-77
2022/11/07 08:31:12;;;;;;;24.85;20.15;;;;;;;6.48;89.38;100513.27;1783895;78;21239;-76
2022/11/07 08:33:40;;;;;;;28.40;20.27;;;;;;;6.54;89.40;100517.23;1754739;80;21037;-83
2022/11/07 08:36:07;;;;;;;26.95;22.13;;;;;;;6.55;89.18;100499.09;1842244;77;20977;-83
2022/11/07 08:38:34;;;;;;;28.77;21.35;;;;;;;6.47;89.60;100509.80;1810447;77;21040;-85
2022/11/07 08:41:00;;;;;;;29.07;22.80;;;;;;;6.42;89.88;100504.53;1803648;78;21555;-81
2022/11/07 08:43:27;;;;;;;31.60;23.47;;;;;;;6.46;89.92;100508.11;1742322;80;22324;-82
2022/11/07 08:45:55;;;;;;;34.10;23.22;;;;;;;6.45;89.95;100497.21;1820468;77;21132;-82
2022/11/07 08:48:22;;;;;;;32.38;22.50;;;;;;;6.40;90.74;100507.28;1829388;77;20962;-84
2022/11/07 08:50:54;;;;;;;31.42;22.30;;;;;;;6.41;91.10;100506.80;1824894;77;20946;-84
2022/11/07 08:53:21;;;;;;;32.28;23.38;;;;;;;6.47;90.40;100503.20;1785970;78;21069;-80
2022/11/07 08:55:48;;;;;;;29.02;21.40;;;;;;;6.42;90.80;100502.72;1781815;80;20975;-83
2022/11/07 08:58:14;;;;;;;26.12;20.57;;;;;;;6.36;91.17;100503.70;1780921;80;21560;-83
2022/11/07 09:00:41;;;;;;;24.40;20.00;;;;;;;6.38;91.28;100509.70;1762971;79;21058;-81
2022/11/07 09:03:08;;;;;;;29.82;22.25;;;;;;;6.40;90.81;100508.61;1777543;79;21006;-83
2022/11/07 09:05:34;;;;;;;32.05;23.42;;;;;;;6.34;91.32;100511.73;1805755;77;20979;-85
2022/11/07 09:08:01;;;;;;;28.32;20.35;;;;;;;6.33;91.44;100504.77;1820381;78;21547;-82
2022/11/07 09:10:28;;;;;;;25.60;20.60;;;;;;;6.39;91.04;100497.67;1828738;78;22060;-84
2022/11/07 09:12:54;;;;;;;26.35;20.20;;;;;;;6.45;90.74;100506.45;1811914;77;21096;-85
2022/11/07 09:15:21;;;;;;;26.42;21.12;;;;;;;6.41;90.45;100497.10;1820946;77;21023;-83
2022/11/07 09:17:49;;;;;;;26.15;20.57;;;;;;;6.34;90.67;100487.98;1782944;79;21002;-84
2022/11/07 09:20:16;;;;;;;25.43;21.12;;;;;;;6.33;90.95;100492.06;1814272;77;21014;-78
2022/11/07 09:22:43;;;;;;;28.87;20.82;;;;;;;6.39;90.65;100492.89;1808334;77;21088;-81
2022/11/07 09:25:10;;;;;;;27.77;21.68;;;;;;;6.36;90.67;100490.51;1805893;77;21097;-81
2022/11/07 09:27:37;;;;;;;24.82;20.23;;;;;;;6.26;91.07;100493.05;1802306;77;21108;-83
2022/11/07 09:30:05;;;;;;;28.35;22.35;;;;;;;6.25;91.57;100480.80;1807897;77;20998;-83
2022/11/07 09:32:32;;;;;;;26.07;21.23;;;;;;;6.26;91.80;100485.13;1803332;77;21069;-82
2022/11/07 09:34:59;;;;;;;23.90;18.92;;;;;;;6.21;92.01;100492.56;1808158;77;21569;-80
2022/11/07 09:37:27;;;;;;;24.72;20.50;;;;;;;6.20;91.90;100471.08;1814759;77;21003;-81
2022/11/07 09:39:54;;;;;;;23.47;19.42;;;;;;;6.25;91.59;100475.03;1829598;76;21054;-82
2022/11/07 09:42:42;;;;;;;24.55;18.55;;;;;;;6.20;90.90;100475.90;1813570;77;21033;-85
2022/11/07 09:45:10;;;;;;;23.38;19.40;;;;;;;6.18;90.80;100478.28;1821198;77;21042;-80
2022/11/07 09:47:44;;;;;;;26.57;18.70;;;;;;;6.23;90.54;100457.66;1802291;77;21218;-79
2022/11/07 09:50:28;;;;;;;26.85;20.20;;;;;;;6.17;90.74;100472.66;1804044;77;21132;-84
2022/11/07 09:53:10;;;;;;;;;;;;;;;6.10;91.28;100471.83;1815713;77;21010;-84
2022/11/07 09:55:53;;;;;;;24.30;17.95;;;;;;;6.17;91.37;100461.62;1817795;77;20218;-79
2022/11/07 09:58:33;;;;;;;24.80;19.07;;;;;;;6.18;91.01;100450.58;1816941;77;20917;-81
2022/11/07 10:01:04;;;;;;;25.10;19.30;;;;;;;6.12;91.16;100440.03;1812922;78;21136;-85
2022/11/07 10:03:34;;;;;;;29.02;20.40;;;;;;;6.12;91.33;100455.86;1826284;76;21083;-83
2022/11/07 10:06:21;;;;;;;25.15;20.20;;;;;;;6.18;91.43;100440.89;1828633;77;21090;-81
2022/11/07 10:08:56;;;;;;;28.07;21.17;;;;;;;6.17;91.89;100447.11;1815622;77;21070;-80
2022/11/07 10:14:34;;;;;;;25.55;21.30;;;;;;;6.25;92.25;100429.34;1857630;75;26529;-81
2022/11/07 10:17:15;;;;;;;27.32;20.57;;;;;;;6.30;92.28;100436.42;1762771;78;21059;-83
2022/11/07 10:20:06;;;;;;;24.52;19.62;;;;;;;6.26;92.16;100430.55;1783718;79;21176;-82
2022/11/07 10:23:04;;;;;;;24.35;20.60;;;;;;;6.35;92.13;100438.67;1828274;76;20919;-82
2022/11/07 10:25:41;;;;;;;27.15;21.35;;;;;;;6.39;91.98;100442.25;1751955;79;21120;-83
2022/11/07 10:28:15;;;;;;;29.15;21.52;;;;;;;6.33;92.10;100432.20;1800465;77;21087;-80
2022/11/07 10:30:47;;;;;;;;;;;;;;;6.34;92.20;100429.92;1765178;78;21077;-86
2022/11/07 10:33:35;;;;;;;25.82;21.17;;;;;;;6.41;91.76;100420.56;1738474;78;21222;-81
2022/11/07 10:36:26;;;;;;;26.17;20.82;;;;;;;6.35;91.46;100425.48;1761332;79;21024;-84
2022/11/07 10:38:53;;;;;;;26.27;21.05;;;;;;;6.27;91.52;100418.19;1812649;77;20980;-82
2022/11/07 10:41:25;;;;;;;25.60;20.17;;;;;;;6.35;91.29;100424.99;1809467;77;20915;-83
2022/11/07 10:43:59;;;;;;;27.87;20.85;;;;;;;6.32;91.12;100401.51;1803920;77;21733;-84
2022/11/07 10:46:43;;;;;;;26.40;18.85;;;;;;;6.29;91.36;100408.34;1816218;78;21039;-83
2022/11/07 10:49:21;;;;;;;26.50;19.40;;;;;;;6.33;91.00;100409.77;1809948;78;21083;-82
2022/11/07 10:51:47;;;;;;;25.68;20.08;;;;;;;6.39;90.60;100406.63;1793406;78;21428;-81
2022/11/07 10:54:28;;;;;;;26.30;20.85;;;;;;;6.37;90.38;100405.91;1803887;77;21063;-82
2022/11/07 10:57:12;;;;;;;25.72;20.00;;;;;;;6.32;90.16;100401.51;1778061;79;21529;-81
2022/11/07 10:59:41;;;;;;;28.05;21.45;;;;;;;6.33;90.31;100400.53;1795975;78;22644;-78
2022/11/07 11:02:20;;;;;;;30.77;21.82;;;;;;;6.38;90.26;100393.58;1829471;75;21011;-78
2022/11/07 11:05:02;;;;;;;26.52;20.77;;;;;;;6.35;90.31;100399.09;1828781;77;21021;-80
2022/11/07 11:07:38;;;;;;;28.87;20.75;;;;;;;6.31;89.96;100399.81;1842014;75;21022;-79
2022/11/07 11:10:20;;;;;;;27.93;20.27;;;;;;;6.35;89.93;100392.50;1814612;75;20990;-79
2022/11/07 11:12:47;;;;;;;25.90;20.95;;;;;;;6.40;89.32;100397.75;1828486;77;21237;-81
2022/11/07 11:15:19;;;;;;;29.42;22.93;;;;;;;6.34;89.12;100386.39;1802602;78;21077;-80
2022/11/07 11:17:45;;;;;;;26.25;19.82;;;;;;;6.32;89.27;100391.41;1827098;75;21023;-77
2022/11/07 11:20:35;;;;;;;24.57;19.80;;;;;;;6.38;89.08;100377.25;1826029;75;21036;-75
2022/11/07 11:23:06;;;;;;;25.77;20.70;;;;;;;6.44;88.48;100384.66;1841374;75;21225;-76
2022/11/07 11:25:48;;;;;;;27.22;20.37;;;;;;;6.39;88.24;100391.28;1830131;75;21499;-75
2022/11/07 11:28:29;;;;;;;28.05;21.27;;;;;;;6.35;88.09;100389.86;1829346;75;21098;-75
2022/11/07 11:31:09;;;;;;;27.90;20.75;;;;;;;6.43;87.90;100390.06;1842747;75;20978;-74
2022/11/07 11:33:50;;;;;;;27.13;22.02;;;;;;;6.40;87.71;100377.96;1821341;75;20978;-74
2022/11/07 11:36:20;;;;;;;25.97;20.02;;;;;;;6.34;87.71;100395.63;1843059;75;20986;-74
2022/11/07 11:38:53;;;;;;;25.80;19.02;;;;;;;6.35;87.78;100370.89;1798186;77;21165;-76
2022/11/07 11:41:39;;;;;;;28.15;21.27;;;;;;;6.40;87.53;100383.23;1839983;75;21088;-75